Terminal Aerodrome Forecast
Issued by NWS

Home | Current Version | Previous Version | Text Only | Print | Product List | Glossary On
Versions: 1 2 3 4 5 6 7
000
FTUS42 KTAE 272300
TAFABY
TAF
KABY 272320Z 2800/2824 00000KT P6SM OVC080
     FM280400 00000KT 4SM BR SCT015
     FM280900 00000KT 1SM BR OVC005
     FM281500 21006KT P6SM OVC008
     FM281700 22008KT P6SM BKN025=

USA.gov is the U.S. government's official web portal to all federal, state and local government web resources and services.